CDT,Max TemperatureF,Mean TemperatureF,Min TemperatureF,Max Dew PointF,MeanDew PointF,Min DewpointF,Max Humidity, Mean Humidity, Min Humidity, Max Sea Level PressureIn, Mean Sea Level PressureIn, Min Sea Level PressureIn, Max VisibilityMiles, Mean VisibilityMiles, Min VisibilityMiles, Max Wind SpeedMPH, Mean Wind SpeedMPH, Max Gust SpeedMPH,PrecipitationIn, CloudCover, Events, WindDirDegrees
2013-9-1,80,69,58,69,61,54,90,69,48,29.93,29.80,29.72,10,10,10,18,9,26,T,4,Rain,308
2013-9-2,72,60,47,53,49,46,86,65,44,30.06,30.01,29.93,10,10,10,14,6,18,0.00,5,,345
2013-9-3,76,59,42,52,47,42,100,69,38,30.11,30.06,30.00,10,6,0,13,4,18,0.00,1,Fog,247
2013-9-4,84,69,54,63,57,52,93,72,51,30.16,30.08,30.02,10,10,10,12,5,15,0.00,0,,333
2013-9-5,81,66,51,58,54,48,100,68,36,30.26,30.22,30.14,10,8,0,10,4,18,0.00,3,Fog,75
2013-9-6,90,74,58,64,61,56,93,66,38,30.14,30.02,29.89,10,10,10,20,7,25,0.00,1,,186
2013-9-7,93,80,66,67,65,62,87,64,41,30.01,29.90,29.85,10,10,10,18,6,26,0.00,1,,34
2013-9-8,78,68,58,63,56,49,86,65,43,30.08,30.01,29.91,10,10,10,17,10,23,T,5,Rain,104
2013-9-9,90,79,67,72,66,64,93,71,48,29.91,29.78,29.63,10,9,6,20,9,24,T,5,,162
2013-9-10,85,77,68,70,66,62,93,71,48,29.96,29.87,29.72,10,10,7,14,6,17,0.01,3,,259
2013-9-11,88,75,61,64,56,47,97,62,26,30.02,29.98,29.95,10,10,10,20,7,26,0.00,1,,262
2013-9-12,73,61,48,55,49,44,93,66,38,30.23,30.13,29.98,10,10,10,18,7,26,0.00,3,,345
2013-9-13,69,53,37,46,41,37,100,68,35,30.29,30.23,30.12,10,5,0,9,2,13,0.00,0,Fog,49
2013-9-14,75,56,37,55,43,37,100,67,33,30.12,30.05,29.94,10,7,0,15,6,22,0.50,1,Fog-Rain,184
2013-9-15,68,56,43,57,52,42,100,82,63,30.33,30.07,29.91,10,9,4,16,8,23,0.35,7,Rain,46
2013-9-16,66,51,36,42,39,36,100,66,32,30.44,30.37,30.30,10,10,10,12,4,16,0.00,0,,81
2013-9-17,68,55,42,57,48,40,96,71,45,30.32,30.17,30.01,10,9,4,20,8,26,0.17,3,Rain,144
2013-9-18,73,66,58,67,62,57,100,90,79,30.00,29.87,29.76,10,6,2,17,7,23,0.13,7,Rain-Thunderstorm,154
2013-9-19,81,74,66,70,67,64,97,83,69,29.78,29.73,29.68,10,9,2,29,6,39,0.33,4,Rain-Thunderstorm,202
2013-9-20,67,59,50,63,54,47,93,75,56,29.88,29.80,29.73,10,10,10,22,10,30,0.01,7,,276
2013-9-21,64,52,40,48,45,41,93,71,48,29.98,29.93,29.88,10,10,2,14,5,18,0.00,4,,310
2013-9-22,68,54,40,46,43,39,100,73,45,30.06,30.00,29.94,10,8,0,15,8,18,0.00,0,Fog,104
2013-9-23,72,60,47,50,47,43,93,67,41,30.05,30.00,29.96,10,10,10,20,9,26,0.00,0,,136
2013-9-24,75,61,46,51,48,45,93,66,38,30.03,29.98,29.93,10,10,9,14,5,17,0.00,0,,101
2013-9-25,72,58,44,53,48,45,100,71,41,30.02,29.98,29.93,10,6,0,15,5,18,0.00,0,Fog,99
2013-9-26,77,63,48,57,52,48,100,74,47,30.02,29.98,29.94,10,9,5,14,8,20,0.00,0,,124
2013-9-27,82,70,57,59,54,48,77,61,45,30.02,29.97,29.88,10,10,10,25,10,32,0.00,0,,152
2013-9-28,73,60,47,63,54,47,100,75,49,29.96,29.82,29.69,10,8,2,28,10,43,0.27,5,Rain,214
2013-9-29,73,58,42,47,45,43,100,68,35,30.01,29.95,29.88,10,9,2,15,7,22,0.00,0,,187
2013-9-30,75,65,54,51,47,45,72,54,35,29.87,29.76,29.68,10,10,10,28,12,38,0.00,0,,178